createdAt,value
2018-05-04T00:00:46.424Z,955.07
2018-05-04T00:01:46.446Z,955.07
2018-05-04T00:02:46.483Z,955.03
2018-05-04T00:03:46.483Z,955.02
2018-05-04T00:04:46.514Z,955
2018-05-04T00:05:46.531Z,954.98
2018-05-04T00:06:46.554Z,954.98
2018-05-04T00:07:46.575Z,954.97
2018-05-04T00:08:46.598Z,955.01
2018-05-04T00:09:46.620Z,954.92
2018-05-04T00:10:46.700Z,954.98
2018-05-04T00:11:46.664Z,954.95
2018-05-04T00:12:46.686Z,954.99
2018-05-04T00:13:46.711Z,954.93
2018-05-04T00:14:46.731Z,954.98
2018-05-04T00:15:46.760Z,954.91
2018-05-04T00:16:46.777Z,954.96
2018-05-04T00:17:46.800Z,954.95
2018-05-04T00:18:46.822Z,954.99
2018-05-04T00:19:46.842Z,955
2018-05-04T00:20:46.865Z,955.01
2018-05-04T00:21:46.886Z,955.06
2018-05-04T00:22:46.908Z,955.07
2018-05-04T00:23:46.930Z,955.09
2018-05-04T00:24:46.953Z,955.08
2018-05-04T00:25:47.026Z,955.09
2018-05-04T00:26:46.997Z,955.07
2018-05-04T00:27:47.020Z,955.08
2018-05-04T00:28:47.046Z,955.07
2018-05-04T00:29:47.070Z,955.06
2018-05-04T00:30:47.089Z,955.06
2018-05-04T00:31:47.113Z,955.11
2018-05-04T00:32:47.136Z,955.06
2018-05-04T00:33:47.157Z,955.1
2018-05-04T00:34:47.180Z,955.07
2018-05-04T00:35:47.203Z,955.11
2018-05-04T00:36:47.226Z,955.13
2018-05-04T00:37:47.248Z,955.11
2018-05-04T00:38:47.270Z,955.14
2018-05-04T00:39:47.293Z,955.14
2018-05-04T00:40:47.365Z,955.16
2018-05-04T00:41:47.338Z,955.18
2018-05-04T00:42:47.361Z,955.2
2018-05-04T00:43:47.383Z,955.15
2018-05-04T00:44:47.405Z,955.13
2018-05-04T00:45:47.427Z,955.11
2018-05-04T00:46:47.450Z,955.13
2018-05-04T00:47:47.474Z,955.08
2018-05-04T00:48:47.557Z,955.14
2018-05-04T00:49:47.517Z,955.15
2018-05-04T00:50:47.543Z,955.2
2018-05-04T00:51:47.562Z,955.19
2018-05-04T00:52:47.593Z,955.17
2018-05-04T00:53:47.607Z,955.15
2018-05-04T00:54:47.629Z,955.16
2018-05-04T00:55:47.701Z,955.16
2018-05-04T00:56:47.675Z,955.17
2018-05-04T00:57:47.695Z,955.15
2018-05-04T00:58:47.718Z,955.13
2018-05-04T00:59:47.740Z,955.16
2018-05-04T01:00:47.768Z,955.18
2018-05-04T01:01:47.788Z,955.19
2018-05-04T01:02:47.807Z,955.24
2018-05-04T01:03:47.829Z,955.21
2018-05-04T01:04:47.853Z,955.15
2018-05-04T01:05:47.873Z,955.18
2018-05-04T01:06:47.894Z,955.22
2018-05-04T01:07:47.918Z,955.22
2018-05-04T01:08:47.939Z,955.22
2018-05-04T01:09:47.961Z,955.21
2018-05-04T01:10:49.240Z,955.2
2018-05-04T01:11:48.006Z,955.18
2018-05-04T01:12:48.030Z,955.17
2018-05-04T01:13:48.049Z,955.23
2018-05-04T01:14:48.075Z,955.18
2018-05-04T01:15:48.096Z,955.18
2018-05-04T01:16:48.118Z,955.13
2018-05-04T01:17:48.140Z,955.1
2018-05-04T01:18:48.164Z,955.18
2018-05-04T01:19:48.205Z,955.13
2018-05-04T01:20:48.205Z,955.16
2018-05-04T01:21:48.229Z,955.15
2018-05-04T01:22:48.256Z,955.16
2018-05-04T01:23:48.275Z,955.15
2018-05-04T01:24:48.296Z,955.15
2018-05-04T01:25:48.315Z,955.15
2018-05-04T01:26:48.337Z,955.17
2018-05-04T01:27:48.358Z,955.14
2018-05-04T01:28:48.381Z,955.2
2018-05-04T01:29:48.409Z,955.22
2018-05-04T01:30:48.427Z,955.25
2018-05-04T01:31:48.452Z,955.24
2018-05-04T01:32:48.475Z,955.18
2018-05-04T01:33:48.497Z,955.21
2018-05-04T01:34:48.525Z,955.2
2018-05-04T01:35:48.541Z,955.17
2018-05-04T01:36:48.564Z,955.17
2018-05-04T01:37:48.586Z,955.16
2018-05-04T01:38:48.607Z,955.17
2018-05-04T01:39:48.631Z,955.2
2018-05-04T01:40:48.654Z,955.19
2018-05-04T01:41:48.677Z,955.2
2018-05-04T01:42:48.706Z,955.14
2018-05-04T01:43:48.718Z,955.19
2018-05-04T01:44:48.741Z,955.15
2018-05-04T01:45:48.766Z,955.17
2018-05-04T01:46:48.786Z,955.2
2018-05-04T01:47:48.809Z,955.19
2018-05-04T01:48:48.831Z,955.24
2018-05-04T01:49:48.854Z,955.17
2018-05-04T01:50:48.875Z,955.14
2018-05-04T01:51:48.897Z,955.11
2018-05-04T01:52:48.922Z,955.07
2018-05-04T01:53:48.944Z,955.01
2018-05-04T01:54:48.966Z,955.06
2018-05-04T01:55:48.988Z,955.12
2018-05-04T01:56:49.010Z,955.14
2018-05-04T01:57:49.032Z,955.14
2018-05-04T01:58:49.054Z,955.13
2018-05-04T01:59:49.077Z,955.15
2018-05-04T02:00:49.098Z,955.14
2018-05-04T02:01:49.121Z,955.16
2018-05-04T02:02:49.142Z,955.13
2018-05-04T02:03:49.163Z,955.12
2018-05-04T02:04:49.188Z,955.12
2018-05-04T02:05:49.208Z,955.15
2018-05-04T02:06:49.229Z,955.16
2018-05-04T02:07:49.296Z,955.15
2018-05-04T02:08:49.275Z,955.17
2018-05-04T02:09:49.297Z,955.13
2018-05-04T02:10:49.325Z,955.14
2018-05-04T02:11:49.339Z,955.16
2018-05-04T02:12:49.363Z,955.12
2018-05-04T02:13:49.386Z,955.16
2018-05-04T02:14:49.408Z,955.15
2018-05-04T02:15:49.429Z,955.15
2018-05-04T02:16:49.454Z,955.17
2018-05-04T02:17:49.474Z,955.18
2018-05-04T02:18:49.496Z,955.17
2018-05-04T02:19:49.518Z,955.16
2018-05-04T02:20:49.539Z,955.19
2018-05-04T02:21:49.561Z,955.21
2018-05-04T02:22:49.580Z,955.22
2018-05-04T02:23:49.601Z,955.23
2018-05-04T02:24:49.625Z,955.21
2018-05-04T02:25:49.649Z,955.26
2018-05-04T02:26:49.670Z,955.27
2018-05-04T02:27:49.693Z,955.26
2018-05-04T02:28:49.716Z,955.27
2018-05-04T02:29:49.737Z,955.26
2018-05-04T02:30:49.759Z,955.27
2018-05-04T02:31:49.783Z,955.25
2018-05-04T02:32:49.802Z,955.25
2018-05-04T02:33:49.822Z,955.22
2018-05-04T02:34:49.849Z,955.26
2018-05-04T02:35:49.868Z,955.22
2018-05-04T02:36:49.890Z,955.23
2018-05-04T02:37:49.911Z,955.24
2018-05-04T02:38:49.933Z,955.21
2018-05-04T02:39:49.954Z,955.25
2018-05-04T02:40:49.977Z,955.22
2018-05-04T02:41:49.998Z,955.24
2018-05-04T02:42:50.025Z,955.26
2018-05-04T02:43:50.045Z,955.28
2018-05-04T02:44:50.066Z,955.29
2018-05-04T02:45:50.092Z,955.21
2018-05-04T02:46:50.114Z,955.23
2018-05-04T02:47:50.131Z,955.22
2018-05-04T02:48:50.155Z,955.18
2018-05-04T02:49:50.188Z,955.21
2018-05-04T02:50:50.200Z,955.21
2018-05-04T02:51:50.270Z,955.23
2018-05-04T02:52:50.242Z,955.26
2018-05-04T02:53:50.264Z,955.24
2018-05-04T02:54:50.291Z,955.27
2018-05-04T02:55:50.308Z,955.26
2018-05-04T02:56:50.330Z,955.27
2018-05-04T02:57:50.353Z,955.27
2018-05-04T02:58:50.375Z,955.29
2018-05-04T02:59:50.396Z,955.28
2018-05-04T03:00:50.418Z,955.26
2018-05-04T03:01:50.438Z,955.3
2018-05-04T03:02:50.459Z,955.31
2018-05-04T03:03:50.481Z,955.3
2018-05-04T03:04:50.503Z,955.35
2018-05-04T03:05:50.528Z,955.34
2018-05-04T03:06:50.699Z,955.33
2018-05-04T03:07:50.571Z,955.37
2018-05-04T03:08:50.594Z,955.38
2018-05-04T03:09:50.615Z,955.33
2018-05-04T03:10:50.635Z,955.36
2018-05-04T03:11:50.658Z,955.35
2018-05-04T03:12:50.679Z,955.35
2018-05-04T03:13:50.702Z,955.39
2018-05-04T03:14:50.726Z,955.4
2018-05-04T03:15:50.745Z,955.37
2018-05-04T03:16:50.766Z,955.39
2018-05-04T03:17:50.788Z,955.33
2018-05-04T03:18:50.813Z,955.33
2018-05-04T03:19:50.831Z,955.33
2018-05-04T03:20:50.853Z,955.31
2018-05-04T03:21:50.925Z,955.33
2018-05-04T03:22:50.897Z,955.31
2018-05-04T03:23:50.918Z,955.28
2018-05-04T03:24:50.938Z,955.31
2018-05-04T03:25:50.967Z,955.35
2018-05-04T03:26:50.983Z,955.34
2018-05-04T03:27:51.008Z,955.4
2018-05-04T03:28:51.024Z,955.38
2018-05-04T03:29:51.051Z,955.35
2018-05-04T03:30:51.069Z,955.32
2018-05-04T03:31:51.093Z,955.35
2018-05-04T03:32:51.113Z,955.35
2018-05-04T03:33:51.135Z,955.37
2018-05-04T03:34:51.157Z,955.36
2018-05-04T03:35:51.178Z,955.37
2018-05-04T03:36:51.250Z,955.38
2018-05-04T03:37:51.233Z,955.35
2018-05-04T03:38:51.324Z,955.33
2018-05-04T03:39:51.266Z,955.3
2018-05-04T03:40:51.287Z,955.3
2018-05-04T03:41:51.310Z,955.31
2018-05-04T03:42:51.375Z,955.32
2018-05-04T03:43:51.353Z,955.35
2018-05-04T03:44:51.376Z,955.33
2018-05-04T03:45:51.397Z,955.32
2018-05-04T03:46:51.417Z,955.39
2018-05-04T03:47:51.439Z,955.42
2018-05-04T03:48:51.461Z,955.46
2018-05-04T03:49:51.483Z,955.46
2018-05-04T03:50:51.506Z,955.47
2018-05-04T03:51:51.579Z,955.49
2018-05-04T03:52:51.548Z,955.51
2018-05-04T03:53:51.570Z,955.53
2018-05-04T03:54:51.594Z,955.53
2018-05-04T03:55:51.614Z,955.53
2018-05-04T03:56:51.636Z,955.52
2018-05-04T03:57:51.657Z,955.51
2018-05-04T03:58:51.679Z,955.51
2018-05-04T03:59:51.702Z,955.53
2018-05-04T04:00:51.726Z,955.47
2018-05-04T04:01:51.745Z,955.52
2018-05-04T04:02:51.767Z,955.51
2018-05-04T04:03:51.788Z,955.49
2018-05-04T04:04:51.810Z,955.5
2018-05-04T04:05:51.830Z,955.51
2018-05-04T04:06:51.903Z,955.5
2018-05-04T04:07:51.874Z,955.5
2018-05-04T04:08:51.896Z,955.55
2018-05-04T04:09:51.918Z,955.58
2018-05-04T04:10:51.945Z,955.56
2018-05-04T04:11:51.962Z,955.58
2018-05-04T04:12:51.983Z,955.56
2018-05-04T04:13:52.005Z,955.56
2018-05-04T04:14:52.027Z,955.59
2018-05-04T04:15:52.045Z,955.55
2018-05-04T04:16:52.071Z,955.59
2018-05-04T04:17:52.095Z,955.55
2018-05-04T04:18:52.115Z,955.57
2018-05-04T04:19:52.137Z,955.58
2018-05-04T04:20:52.157Z,955.57
2018-05-04T04:21:52.229Z,955.62
2018-05-04T04:22:52.202Z,955.62
2018-05-04T04:23:52.224Z,955.63
2018-05-04T04:24:52.248Z,955.65
2018-05-04T04:25:52.268Z,955.62
2018-05-04T04:26:52.289Z,955.6
2018-05-04T04:27:52.314Z,955.61
2018-05-04T04:28:52.331Z,955.64
2018-05-04T04:29:52.355Z,955.59
2018-05-04T04:30:52.377Z,955.59
2018-05-04T04:31:52.397Z,955.6
2018-05-04T04:32:52.421Z,955.6
2018-05-04T04:33:52.442Z,955.56
2018-05-04T04:34:52.461Z,955.67
2018-05-04T04:35:52.485Z,955.61
2018-05-04T04:36:52.561Z,955.66
2018-05-04T04:37:52.528Z,955.67
2018-05-04T04:38:52.634Z,955.64
2018-05-04T04:39:52.572Z,955.6
2018-05-04T04:40:52.595Z,955.63
2018-05-04T04:41:52.716Z,955.58
2018-05-04T04:42:52.637Z,955.66
2018-05-04T04:43:52.664Z,955.67
2018-05-04T04:44:52.684Z,955.65
2018-05-04T04:45:52.707Z,955.7
2018-05-04T04:46:52.776Z,955.7
2018-05-04T04:47:52.749Z,955.73
2018-05-04T04:48:52.770Z,955.76
2018-05-04T04:49:52.791Z,955.71
2018-05-04T04:50:52.814Z,955.7
2018-05-04T04:51:52.836Z,955.71
2018-05-04T04:52:52.856Z,955.75
2018-05-04T04:53:52.879Z,955.79
2018-05-04T04:54:52.901Z,955.81
2018-05-04T04:55:52.925Z,955.9
2018-05-04T04:56:52.944Z,955.87
2018-05-04T04:57:52.966Z,955.91
2018-05-04T04:58:52.994Z,955.94
2018-05-04T04:59:53.010Z,955.97
2018-05-04T05:00:53.032Z,955.92
2018-05-04T05:01:53.220Z,955.97
2018-05-04T05:02:53.076Z,955.96
2018-05-04T05:03:53.098Z,956.01
2018-05-04T05:04:53.123Z,955.98
2018-05-04T05:05:53.142Z,955.98
2018-05-04T05:06:53.164Z,955.96
2018-05-04T05:07:53.185Z,956
2018-05-04T05:08:53.215Z,956
2018-05-04T05:09:53.321Z,955.93
2018-05-04T05:10:53.260Z,955.95
2018-05-04T05:11:53.275Z,955.97
2018-05-04T05:12:53.296Z,955.97
2018-05-04T05:13:53.319Z,955.92
2018-05-04T05:14:53.342Z,955.97
2018-05-04T05:15:53.362Z,955.94
2018-05-04T05:16:53.484Z,955.98
2018-05-04T05:17:53.407Z,955.99
2018-05-04T05:18:53.431Z,956
2018-05-04T05:19:53.451Z,956
2018-05-04T05:20:53.477Z,956.02
2018-05-04T05:21:53.522Z,956.05
2018-05-04T05:22:53.516Z,956.04
2018-05-04T05:23:53.540Z,956.06
2018-05-04T05:24:53.561Z,956.08
2018-05-04T05:25:53.583Z,956.11
2018-05-04T05:26:53.655Z,956.08
2018-05-04T05:27:53.626Z,956.08
2018-05-04T05:28:53.650Z,956.1
2018-05-04T05:29:53.675Z,956.09
2018-05-04T05:30:53.692Z,956.08
2018-05-04T05:31:53.716Z,956.1
2018-05-04T05:32:53.738Z,956.04
2018-05-04T05:33:53.759Z,956.08
2018-05-04T05:34:53.782Z,956.06
2018-05-04T05:35:53.804Z,956.05
2018-05-04T05:36:53.825Z,956.03
2018-05-04T05:37:53.847Z,956.02
2018-05-04T05:38:53.875Z,956
2018-05-04T05:39:53.891Z,956.02
2018-05-04T05:40:53.914Z,956.04
2018-05-04T05:41:54.095Z,956.04
2018-05-04T05:42:53.958Z,956.07
2018-05-04T05:43:53.979Z,956.09
2018-05-04T05:44:54.001Z,956.08
2018-05-04T05:45:54.024Z,956.09
2018-05-04T05:46:54.047Z,956.08
2018-05-04T05:47:54.071Z,956.14
2018-05-04T05:48:54.090Z,956.1
2018-05-04T05:49:54.115Z,956.15
2018-05-04T05:50:54.131Z,956.14
2018-05-04T05:51:54.226Z,956.18
2018-05-04T05:52:54.177Z,956.15
2018-05-04T05:53:54.203Z,956.18
2018-05-04T05:54:54.221Z,956.13
2018-05-04T05:55:54.245Z,956.22
2018-05-04T05:56:54.315Z,956.15
2018-05-04T05:57:54.287Z,956.18
2018-05-04T05:58:54.307Z,956.19
2018-05-04T05:59:54.326Z,956.17
2018-05-04T06:00:54.350Z,956.2
2018-05-04T06:01:54.370Z,956.17
2018-05-04T06:02:54.392Z,956.12
2018-05-04T06:03:54.415Z,956.14
2018-05-04T06:04:54.437Z,956.15
2018-05-04T06:05:54.458Z,956.18
2018-05-04T06:06:54.484Z,956.12
2018-05-04T06:07:54.507Z,956.13
2018-05-04T06:08:54.531Z,956.12
2018-05-04T06:09:54.553Z,956.14
2018-05-04T06:10:54.573Z,956.14
2018-05-04T06:11:54.663Z,956.15
2018-05-04T06:12:54.617Z,956.21
2018-05-04T06:13:54.638Z,956.22
2018-05-04T06:14:54.750Z,956.23
2018-05-04T06:15:54.684Z,956.29
2018-05-04T06:16:54.706Z,956.22
2018-05-04T06:17:54.728Z,956.27
2018-05-04T06:18:54.750Z,956.29
2018-05-04T06:19:54.772Z,956.29
2018-05-04T06:20:54.793Z,956.31
2018-05-04T06:21:54.820Z,956.35
2018-05-04T06:22:54.839Z,956.37
2018-05-04T06:23:54.867Z,956.32
2018-05-04T06:24:54.882Z,956.33
2018-05-04T06:25:54.905Z,956.4
2018-05-04T06:26:54.978Z,956.31
2018-05-04T06:27:54.948Z,956.34
2018-05-04T06:28:54.976Z,956.34
2018-05-04T06:29:54.994Z,956.34
2018-05-04T06:30:55.020Z,956.35
2018-05-04T06:31:55.188Z,956.35
2018-05-04T06:32:55.060Z,956.36
2018-05-04T06:33:55.187Z,956.35
2018-05-04T06:34:55.105Z,956.33
2018-05-04T06:35:55.133Z,956.32
2018-05-04T06:36:55.150Z,956.34
2018-05-04T06:37:55.171Z,956.33
2018-05-04T06:38:55.195Z,956.33
2018-05-04T06:39:55.216Z,956.37
2018-05-04T06:40:55.239Z,956.37
2018-05-04T06:41:55.361Z,956.4
2018-05-04T06:42:55.283Z,956.37
2018-05-04T06:43:55.307Z,956.4
2018-05-04T06:44:55.331Z,956.42
2018-05-04T06:45:55.351Z,956.42
2018-05-04T06:46:55.424Z,956.43
2018-05-04T06:47:55.395Z,956.44
2018-05-04T06:48:55.418Z,956.44
2018-05-04T06:49:55.450Z,956.38
2018-05-04T06:50:55.463Z,956.4
2018-05-04T06:51:55.486Z,956.41
2018-05-04T06:52:55.508Z,956.47
2018-05-04T06:53:55.531Z,956.43
2018-05-04T06:54:55.554Z,956.43
2018-05-04T06:55:55.576Z,956.48
2018-05-04T06:56:55.849Z,956.43
2018-05-04T06:57:55.621Z,956.43
2018-05-04T06:58:55.644Z,956.45
2018-05-04T06:59:55.668Z,956.43
2018-05-04T07:00:55.692Z,956.45
2018-05-04T07:01:55.715Z,956.47
2018-05-04T07:02:55.735Z,956.45
2018-05-04T07:03:55.761Z,956.44
2018-05-04T07:04:55.780Z,956.44
2018-05-04T07:05:55.803Z,956.39
2018-05-04T07:06:55.826Z,956.43
2018-05-04T07:07:55.848Z,956.38
2018-05-04T07:08:55.967Z,956.46
2018-05-04T07:09:55.896Z,956.47
2018-05-04T07:10:55.920Z,956.53
2018-05-04T07:11:55.990Z,956.53
2018-05-04T07:12:55.973Z,956.54
2018-05-04T07:13:55.985Z,956.56
2018-05-04T07:14:56.090Z,956.56
2018-05-04T07:15:56.031Z,956.57
2018-05-04T07:16:56.054Z,956.52
2018-05-04T07:17:56.076Z,956.55
2018-05-04T07:18:56.101Z,956.55
2018-05-04T07:19:56.122Z,956.54
2018-05-04T07:20:56.183Z,956.58
2018-05-04T07:21:56.170Z,956.64
2018-05-04T07:22:56.191Z,956.62
2018-05-04T07:23:56.214Z,956.64
2018-05-04T07:24:56.237Z,956.68
2018-05-04T07:25:56.259Z,956.67
2018-05-04T07:26:56.332Z,956.66
2018-05-04T07:27:56.306Z,956.71
2018-05-04T07:28:56.330Z,956.64
2018-05-04T07:29:56.358Z,956.68
2018-05-04T07:30:56.375Z,956.65
2018-05-04T07:31:56.399Z,956.63
2018-05-04T07:32:56.422Z,956.63
2018-05-04T07:33:56.444Z,956.63
2018-05-04T07:34:56.466Z,956.61
2018-05-04T07:35:56.579Z,956.6
2018-05-04T07:36:56.514Z,956.67
2018-05-04T07:37:56.537Z,956.68
2018-05-04T07:38:56.564Z,956.69
2018-05-04T07:39:56.583Z,956.67
2018-05-04T07:40:56.606Z,956.65
2018-05-04T07:41:56.681Z,956.66
2018-05-04T07:42:56.654Z,956.64
2018-05-04T07:43:56.678Z,956.69
2018-05-04T07:44:56.705Z,956.66
2018-05-04T07:45:56.725Z,956.67
2018-05-04T07:46:56.749Z,956.69
2018-05-04T07:47:56.772Z,956.7
2018-05-04T07:48:56.795Z,956.7
2018-05-04T07:49:56.818Z,956.7
2018-05-04T07:50:56.843Z,956.69
2018-05-04T07:51:56.914Z,956.69
2018-05-04T07:52:56.891Z,956.64
2018-05-04T07:53:56.916Z,956.65
2018-05-04T07:54:56.938Z,956.61
2018-05-04T07:55:56.962Z,956.59
2018-05-04T07:56:57.035Z,956.6
2018-05-04T07:57:57.009Z,956.6
2018-05-04T07:58:57.033Z,956.59
2018-05-04T07:59:57.059Z,956.54
2018-05-04T08:00:57.082Z,956.58
2018-05-04T08:01:57.157Z,956.59
2018-05-04T08:02:57.165Z,956.58
2018-05-04T08:03:57.156Z,956.67
2018-05-04T08:04:57.202Z,956.63
2018-05-04T08:05:57.208Z,956.73
2018-05-04T08:06:57.278Z,956.7
2018-05-04T08:07:57.253Z,956.72
2018-05-04T08:08:57.278Z,956.68
2018-05-04T08:09:57.305Z,956.69
2018-05-04T08:10:57.326Z,956.75
2018-05-04T08:11:57.352Z,956.75
2018-05-04T08:12:57.375Z,956.7
2018-05-04T08:13:57.400Z,956.67
2018-05-04T08:14:57.424Z,956.68
2018-05-04T08:15:57.451Z,956.7
2018-05-04T08:16:57.593Z,956.67
2018-05-04T08:17:57.505Z,956.71
2018-05-04T08:18:57.521Z,956.7
2018-05-04T08:19:57.631Z,956.73
2018-05-04T08:20:57.569Z,956.73
2018-05-04T08:21:57.649Z,956.75
2018-05-04T08:22:57.619Z,956.72
2018-05-04T08:23:57.646Z,956.76
2018-05-04T08:24:57.667Z,956.76
2018-05-04T08:25:57.694Z,956.73
2018-05-04T08:26:57.715Z,956.72
2018-05-04T08:27:57.740Z,956.71
2018-05-04T08:28:57.764Z,956.75
2018-05-04T08:29:57.785Z,956.68
2018-05-04T08:30:57.829Z,956.71
2018-05-04T08:31:57.840Z,956.71
2018-05-04T08:32:57.861Z,956.72
2018-05-04T08:33:57.889Z,956.74
2018-05-04T08:34:57.911Z,956.74
2018-05-04T08:35:57.932Z,956.76
2018-05-04T08:36:58.006Z,956.74
2018-05-04T08:37:57.992Z,956.75
2018-05-04T08:38:58.004Z,956.71
2018-05-04T08:39:58.028Z,956.76
2018-05-04T08:40:58.051Z,956.76
2018-05-04T08:41:58.125Z,956.7
2018-05-04T08:42:58.129Z,956.74
2018-05-04T08:43:58.127Z,956.78
2018-05-04T08:44:58.147Z,956.79
2018-05-04T08:45:58.181Z,956.78
2018-05-04T08:46:58.266Z,956.76
2018-05-04T08:47:58.223Z,956.82
2018-05-04T08:48:58.253Z,956.77
2018-05-04T08:49:58.265Z,956.78
2018-05-04T08:50:58.345Z,956.81
2018-05-04T08:51:58.310Z,956.77
2018-05-04T08:52:58.337Z,956.75
2018-05-04T08:53:58.358Z,956.75
2018-05-04T08:54:58.380Z,956.74
2018-05-04T08:55:58.405Z,956.77
2018-05-04T08:56:58.529Z,956.78
2018-05-04T08:57:58.454Z,956.75
2018-05-04T08:58:58.481Z,956.74
2018-05-04T08:59:58.499Z,956.77
2018-05-04T09:00:58.524Z,956.79
2018-05-04T09:01:58.667Z,956.8
2018-05-04T09:02:58.576Z,956.78
2018-05-04T09:03:58.595Z,956.82
2018-05-04T09:04:58.617Z,956.84
2018-05-04T09:05:58.638Z,956.84
2018-05-04T09:06:58.663Z,956.82
2018-05-04T09:07:58.689Z,956.82
2018-05-04T09:08:58.710Z,956.84
2018-05-04T09:09:58.743Z,956.85
2018-05-04T09:10:58.758Z,956.88
2018-05-04T09:11:58.784Z,956.88
2018-05-04T09:12:58.807Z,956.85
2018-05-04T09:13:58.829Z,956.88
2018-05-04T09:14:58.853Z,956.92
2018-05-04T09:15:58.877Z,956.89
2018-05-04T09:16:58.949Z,956.89
2018-05-04T09:17:58.923Z,956.89
2018-05-04T09:18:58.947Z,956.95
2018-05-04T09:19:58.971Z,956.91
2018-05-04T09:20:58.995Z,956.94
2018-05-04T09:21:59.019Z,956.9
2018-05-04T09:22:59.042Z,956.91
2018-05-04T09:23:59.066Z,956.93
2018-05-04T09:24:59.089Z,956.9
2018-05-04T09:25:59.113Z,956.92
2018-05-04T09:26:59.136Z,956.91
2018-05-04T09:27:59.160Z,956.98
2018-05-04T09:28:59.183Z,956.93
2018-05-04T09:29:59.208Z,956.97
2018-05-04T09:30:59.317Z,956.99
2018-05-04T09:31:59.306Z,957.01
2018-05-04T09:32:59.290Z,957
2018-05-04T09:33:59.303Z,956.99
2018-05-04T09:34:59.332Z,957
2018-05-04T09:35:59.350Z,956.98
2018-05-04T09:36:59.396Z,956.98
2018-05-04T09:37:59.399Z,957
2018-05-04T09:38:59.421Z,956.95
2018-05-04T09:39:59.447Z,957
2018-05-04T09:40:59.489Z,956.94
2018-05-04T09:41:59.495Z,956.97
2018-05-04T09:42:59.519Z,956.91
2018-05-04T09:43:59.544Z,956.97
2018-05-04T09:44:59.571Z,956.98
2018-05-04T09:45:59.590Z,956.97
2018-05-04T09:46:59.665Z,957
2018-05-04T09:47:59.640Z,956.97
2018-05-04T09:48:59.701Z,956.97
2018-05-04T09:49:59.685Z,957.05
2018-05-04T09:50:59.710Z,957.05
2018-05-04T09:51:59.734Z,957.02
2018-05-04T09:52:59.762Z,957.01
2018-05-04T09:53:59.780Z,957
2018-05-04T09:54:59.804Z,957.06
2018-05-04T09:55:59.892Z,957.03
2018-05-04T09:56:59.851Z,957.02
2018-05-04T09:57:59.880Z,957.02
2018-05-04T09:58:59.899Z,957.03
2018-05-04T09:59:59.923Z,957.04
2018-05-04T10:00:59.950Z,957.04
2018-05-04T10:02:00.029Z,957.04
2018-05-04T10:02:59.994Z,957.07
2018-05-04T10:04:00.017Z,957.04
2018-05-04T10:05:00.043Z,957.08
2018-05-04T10:06:00.066Z,957.12
2018-05-04T10:07:00.088Z,957.1
2018-05-04T10:08:00.113Z,957.1
2018-05-04T10:09:00.136Z,957.08
2018-05-04T10:10:00.161Z,957.11
2018-05-04T10:11:00.188Z,957.11
2018-05-04T10:12:00.209Z,957.13
2018-05-04T10:13:00.230Z,957.15
2018-05-04T10:14:00.256Z,957.11
2018-05-04T10:15:00.281Z,957.12
2018-05-04T10:16:00.349Z,957.06
2018-05-04T10:17:00.377Z,957.11
2018-05-04T10:18:00.350Z,957.06
2018-05-04T10:19:00.375Z,957.12
2018-05-04T10:20:00.398Z,957.14
2018-05-04T10:21:00.422Z,957.11
2018-05-04T10:22:00.449Z,957.11
2018-05-04T10:23:00.467Z,957.1
2018-05-04T10:24:00.493Z,957.12
2018-05-04T10:25:00.517Z,957.14
2018-05-04T10:26:00.541Z,957.12
2018-05-04T10:27:00.565Z,957.14
2018-05-04T10:28:00.589Z,957.18
2018-05-04T10:29:00.611Z,957.14
2018-05-04T10:30:00.635Z,957.17
2018-05-04T10:31:00.660Z,957.08
2018-05-04T10:32:00.740Z,957.12
2018-05-04T10:33:00.707Z,957.1
2018-05-04T10:34:00.732Z,957.1
2018-05-04T10:35:00.754Z,957.1
2018-05-04T10:36:00.778Z,957.1
2018-05-04T10:37:00.901Z,957.04
2018-05-04T10:38:00.826Z,957.12
2018-05-04T10:39:00.874Z,957.03
2018-05-04T10:40:00.874Z,957.1
2018-05-04T10:41:00.898Z,957.1
2018-05-04T10:42:00.923Z,957.11
2018-05-04T10:43:00.944Z,957.08
2018-05-04T10:44:00.968Z,957.08
2018-05-04T10:45:01.081Z,957.09
2018-05-04T10:46:01.017Z,957.07
2018-05-04T10:47:01.093Z,957.02
2018-05-04T10:48:01.064Z,957.07
2018-05-04T10:49:01.094Z,957.05
2018-05-04T10:50:01.116Z,957.02
2018-05-04T10:51:01.153Z,957.01
2018-05-04T10:52:01.164Z,957.03
2018-05-04T10:53:01.189Z,957.05
2018-05-04T10:54:01.212Z,957.09
2018-05-04T10:55:01.235Z,957.08
2018-05-04T10:56:01.261Z,957.11
2018-05-04T10:57:01.335Z,957.06
2018-05-04T10:58:01.307Z,957.03
2018-05-04T10:59:01.332Z,957.04
2018-05-04T11:00:01.357Z,957.03
2018-05-04T11:01:01.388Z,957
2018-05-04T11:02:01.456Z,957.05
2018-05-04T11:03:01.429Z,956.99
2018-05-04T11:04:01.454Z,956.99
2018-05-04T11:05:01.478Z,956.97
2018-05-04T11:06:01.502Z,956.98
2018-05-04T11:07:01.526Z,956.97
2018-05-04T11:08:01.550Z,956.99
2018-05-04T11:09:01.573Z,956.97
2018-05-04T11:10:01.599Z,957.02
2018-05-04T11:11:01.696Z,957.02
2018-05-04T11:12:01.730Z,957.05
2018-05-04T11:13:01.673Z,957
2018-05-04T11:14:01.697Z,957.03
2018-05-04T11:15:01.724Z,957.03
2018-05-04T11:16:01.749Z,957.09
2018-05-04T11:17:01.780Z,957.09
2018-05-04T11:18:01.796Z,957.07
2018-05-04T11:19:01.822Z,957.11
2018-05-04T11:20:01.846Z,957.11
2018-05-04T11:21:01.872Z,957.11
2018-05-04T11:22:01.905Z,957.13
2018-05-04T11:23:01.925Z,957.1
2018-05-04T11:24:01.949Z,957.07
2018-05-04T11:25:01.974Z,957.08
2018-05-04T11:26:02.000Z,957.05
2018-05-04T11:27:02.070Z,957.1
2018-05-04T11:28:02.048Z,957.06
2018-05-04T11:29:02.071Z,957.13
2018-05-04T11:30:02.098Z,957.06
2018-05-04T11:31:02.122Z,957.11
2018-05-04T11:32:02.151Z,957.07
2018-05-04T11:33:02.174Z,957.08
2018-05-04T11:34:02.199Z,957.08
2018-05-04T11:35:02.227Z,957.08
2018-05-04T11:36:02.258Z,957.07
2018-05-04T11:37:02.274Z,957.07
2018-05-04T11:38:02.303Z,957.13
2018-05-04T11:39:02.446Z,957.08
2018-05-04T11:40:02.351Z,957.09
2018-05-04T11:41:02.383Z,957.1
2018-05-04T11:42:02.452Z,957.11
2018-05-04T11:43:02.428Z,957.14
2018-05-04T11:44:02.453Z,957.18
2018-05-04T11:45:02.479Z,957.2
2018-05-04T11:46:02.521Z,957.19
2018-05-04T11:47:02.533Z,957.19
2018-05-04T11:48:02.557Z,957.18
2018-05-04T11:49:02.583Z,957.22
2018-05-04T11:50:02.609Z,957.25
2018-05-04T11:51:02.633Z,957.23
2018-05-04T11:52:02.667Z,957.25
2018-05-04T11:53:02.684Z,957.26
2018-05-04T11:54:02.711Z,957.22
2018-05-04T11:55:02.735Z,957.22
2018-05-04T11:56:02.763Z,957.27
2018-05-04T11:57:02.834Z,957.31
2018-05-04T11:58:02.811Z,957.28
2018-05-04T11:59:02.838Z,957.29
2018-05-04T12:00:02.862Z,957.29
2018-05-04T12:01:02.890Z,957.32
2018-05-04T12:02:02.915Z,957.32
2018-05-04T12:03:02.940Z,957.33
2018-05-04T12:04:02.964Z,957.27
2018-05-04T12:05:02.988Z,957.3
2018-05-04T12:06:03.016Z,957.28
2018-05-04T12:07:03.041Z,957.27
2018-05-04T12:08:03.064Z,957.29
2018-05-04T12:09:03.090Z,957.32
2018-05-04T12:10:03.116Z,957.3
2018-05-04T12:11:03.141Z,957.3
2018-05-04T12:12:03.216Z,957.3
2018-05-04T12:13:03.196Z,957.24
2018-05-04T12:14:03.217Z,957.28
2018-05-04T12:15:03.242Z,957.27
2018-05-04T12:16:03.268Z,957.29
2018-05-04T12:17:03.342Z,957.26
2018-05-04T12:18:03.318Z,957.27
2018-05-04T12:19:03.342Z,957.28
2018-05-04T12:20:03.367Z,957.33
2018-05-04T12:21:03.393Z,957.3
2018-05-04T12:22:03.467Z,957.32
2018-05-04T12:23:03.443Z,957.32
2018-05-04T12:24:03.468Z,957.29
2018-05-04T12:25:03.492Z,957.3
2018-05-04T12:26:03.524Z,957.25
2018-05-04T12:27:03.591Z,957.24
2018-05-04T12:28:03.568Z,957.27
2018-05-04T12:29:03.592Z,957.22
2018-05-04T12:30:03.618Z,957.22
2018-05-04T12:31:03.643Z,957.19
2018-05-04T12:32:03.669Z,957.2
2018-05-04T12:33:03.694Z,957.15